Details From NZAA - Auckland International
To NZWN - Wellington Intl
Flight Number -
Tags Generated
Created
Modified
Stats Distance 258 nm / 479 km
Max Altitude 0 ft / 0 m
Waypoints 3
Social Downloads 3
Likes 0
Share VATSIM

Download

Looking for another format? Having issues loading an existing format? Contact us
Advertisement - Login to hide

Notes

Generated

Route

NZAA GORGE NZWN

ID Type Via Altitude Latitude Longitude Leg Dist Tot Dist Heading (true) Name
O NZAA APT - 0 ft / 0 m -37.01438˚ 174.77090˚ - 0 nm - -
GORGE FIX - 0 ft / 0 m -41.23839˚ 174.81287˚ 253 nm 253 nm 180° / 180° -
O NZWN APT - 0 ft / 0 m -41.31787˚ 174.80743˚ 4 nm 258 nm 183° / 183° -

Altitude Profile

Advertisement - Login to hide

Weather


0- 5 10 15 20 25 30 35+ Temperature / ° C

Clouds and Precipitation
Forecast for 2017-12-14 12:00 UTC. Updated an hour ago

Ground ~20,000 ft ~40,000 ft Winds

NZAA

Details ICAO NZAA (AKL)
Name Auckland International
Region New Zealand and Antarctica
Timezone Pacific/Auckland (UTC+13.0)
Stats Elevation 23 ft / 7 m (AMSL)
Location -37.010794° 174.787331°
Runways 2
Magnetic Variation 19.833° E

METAR

NZAA 141030Z AUTO 05008KT 9999 -RA SCT039/// BKN048/// 19/13 Q1015 NOSIG

Decode

TAF

Not found

Departure Runways

ID Width Length Bearing (true) Bearing (mag) Surface Threshold Offset Overrun Length
05L 157 ft / 48 m 10,844 ft / 3,305 m 70.91° 51.08° Concrete 1,240 ft / 378 m 460 ft / 140 m
05R 152 ft / 46 m 12,085 ft / 3,684 m 70.96° 51.13° Concrete 1,270 ft / 387 m 0 ft / 0 m
23L 152 ft / 46 m 12,085 ft / 3,684 m 250.94° 231.11° Concrete 0 ft / 0 m 0 ft / 0 m
23R 157 ft / 48 m 10,844 ft / 3,305 m 250.89° 231.06° Concrete 1,060 ft / 323 m 0 ft / 0 m

NZWN

Details ICAO NZWN (WLG)
Name Wellington Intl
Region New Zealand and Antarctica
Timezone Pacific/Auckland (UTC+13.0)
Stats Elevation 42 ft / 13 m (AMSL)
Location -41.326843° 174.806842°
Runways 1
Magnetic Variation 22.589° E

METAR

NZWN 141030Z AUTO 33003KT 9999 NCD 16/11 Q1017 NOSIG

Decode

TAF

Not found

Destination Runways

ID Width Length Bearing (true) Bearing (mag) Surface Threshold Offset Overrun Length
16 148 ft / 45 m 6,555 ft / 1,998 m 182.80° 160.21° Asphalt 200 ft / 61 m 197 ft / 60 m
34 148 ft / 45 m 6,555 ft / 1,998 m 2.80° 340.21° Asphalt 351 ft / 107 m 197 ft / 60 m

Approach Navaids

Runway Type Ident Frequency Range Bearing (true) Bearing (mag) Slope Elevation
16 Localiser IEB 110.30 MHz 18 nm / 33 km 182.84° 160.25° - 20 ft / 6 m (AMSL)
16 Glidescope IEB 110.30 MHz 18 nm / 33 km 183.53° 160.94° 3.00° 26 ft / 8 m (AMSL)
16 DME IEB 110.30 MHz 18 nm / 33 km - - - 26 ft / 8 m (AMSL)
34 Localiser IMP 109.90 MHz 18 nm / 33 km 2.75° 340.17° - 20 ft / 6 m (AMSL)
34 Glidescope IMP 109.90 MHz 18 nm / 33 km 3.00° 340.41° 3.00° 6 ft / 2 m (AMSL)
34 DME IMP 109.90 MHz 18 nm / 33 km - - - 7 ft / 2 m (AMSL)

Popular Alternatives